KSPF Airport (Black Hills-Clyde Ice Field) Information

FAA: SPF - ICAO: KSPF

KSPF Airport Location

State South Dakota
County Lawrence
City Spearfish
KSPF Airport is 3 miles east of Spearfish, SD.
Latitude 44-28-51.8000N
Longitude 103-47-09.6000W
Elevation 3,933ft

KSPF Airport METARs

METAR KSPF 280155Z AUTO 27013KT 10SM SCT075 BKN085 07/M01 A2996 RMK AO2
Altimeter 29.96"
Temperature 7.0°C (44.6°F)
Wind 270° at 13KT
Clouds scattered at 7,500ft broken at 8,500ft
Visibility 10.0mi
Time observed: 2021-10-28T01:55:00Z

KSPF Airport Details

Status Operational
Activation November 1937
Ownership Public
Usage Public
Chart CHEYENNE
ATC on-site No
Beacon schedule sunset-sunrise
Beacon color clear green

KSPF Airport Contacts

Owner CITY OF SPEARFISH
Owner address 625 NORTH FIFTH STREET, SPEARFISH, SD 57783
Owner phone 605-642-1333
Manager DOUG SLY
Manager address PO BOX 754, PLATTE, SD 57369
Manager phone 605-337-2334

KSPF Airport (Black Hills-Clyde Ice Field) Radio Frequencies

KSPF (Airport) Radio Frequencies

UNICOM 122.7
Common traffic advisory frequency (CTAF) 122.7